createdAt,value
2019-01-18T00:00:37.804Z,29.30
2019-01-18T00:03:06.565Z,28.97
2019-01-18T00:05:35.109Z,29.90
2019-01-18T00:08:03.566Z,29.60
2019-01-18T00:10:32.196Z,30.03
2019-01-18T00:13:00.814Z,32.30
2019-01-18T00:15:29.446Z,30.73
2019-01-18T00:17:57.830Z,31.00
2019-01-18T00:20:26.461Z,29.40
2019-01-18T00:22:55.162Z,30.37
2019-01-18T00:25:23.619Z,29.80
2019-01-18T00:27:52.023Z,30.93
2019-01-18T00:30:22.348Z,29.57
2019-01-18T00:32:50.948Z,29.80
2019-01-18T00:35:19.586Z,30.60
2019-01-18T00:37:48.212Z,31.47
2019-01-18T00:40:21.285Z,31.43
2019-01-18T00:42:49.683Z,30.63
2019-01-18T00:45:19.615Z,28.77
2019-01-18T00:47:48.472Z,30.43
2019-01-18T00:50:18.804Z,30.97
2019-01-18T00:52:47.343Z,29.33
2019-01-18T00:55:15.971Z,28.50
2019-01-18T00:57:44.665Z,30.97
2019-01-18T01:00:16.958Z,27.90
2019-01-18T01:02:45.507Z,30.27
2019-01-18T01:05:14.255Z,28.80
2019-01-18T01:07:42.983Z,30.67
2019-01-18T01:10:12.161Z,28.77
2019-01-18T01:12:40.608Z,28.83
2019-01-18T01:15:15.423Z,29.60
2019-01-18T01:17:44.114Z,29.90
2019-01-18T01:20:14.424Z,28.37
2019-01-18T01:22:42.908Z,28.50
2019-01-18T01:25:12.403Z,31.63
2019-01-18T01:27:41.241Z,30.47
2019-01-18T01:30:26.224Z,29.90
2019-01-18T01:32:55.128Z,29.10
2019-01-18T01:35:23.850Z,28.23
2019-01-18T01:37:52.714Z,29.33
2019-01-18T01:40:26.292Z,29.87
2019-01-18T01:42:54.759Z,28.00
2019-01-18T01:45:23.790Z,29.30
2019-01-18T01:47:52.170Z,29.73
2019-01-18T01:50:23.406Z,29.80
2019-01-18T01:52:51.969Z,30.03
2019-01-18T01:55:20.603Z,29.47
2019-01-18T01:57:49.127Z,29.33
2019-01-18T02:00:20.097Z,29.70
2019-01-18T02:02:48.800Z,30.63
2019-01-18T02:05:17.459Z,31.07
2019-01-18T02:07:46.493Z,29.13
2019-01-18T02:10:17.718Z,32.10
2019-01-18T02:12:46.874Z,31.17
2019-01-18T02:15:17.883Z,28.87
2019-01-18T02:17:46.283Z,29.80
2019-01-18T02:20:17.010Z,29.53
2019-01-18T02:22:45.755Z,30.40
2019-01-18T02:25:14.824Z,31.03
2019-01-18T02:27:45.284Z,33.90
2019-01-18T02:30:19.390Z,30.10
2019-01-18T02:32:47.854Z,31.17
2019-01-18T02:35:16.324Z,31.97
2019-01-18T02:37:45.046Z,31.07
2019-01-18T02:40:14.649Z,31.93
2019-01-18T02:42:43.437Z,35.67
2019-01-18T02:45:15.104Z,34.47
2019-01-18T02:47:43.884Z,31.00
2019-01-18T02:50:13.406Z,33.00
2019-01-18T02:52:41.797Z,33.20
2019-01-18T02:55:11.357Z,32.80
2019-01-18T02:57:40.064Z,32.83
2019-01-18T03:00:14.874Z,34.40
2019-01-18T03:02:43.357Z,33.27
2019-01-18T03:05:13.683Z,35.07
2019-01-18T03:07:42.088Z,34.50
2019-01-18T03:10:19.456Z,34.33
2019-01-18T03:12:47.865Z,32.63
2019-01-18T03:15:16.242Z,33.87
2019-01-18T03:17:45.145Z,33.90
2019-01-18T03:20:15.809Z,34.00
2019-01-18T03:22:44.460Z,33.17
2019-01-18T03:25:24.694Z,33.80
2019-01-18T03:27:53.585Z,35.23
2019-01-18T03:30:21.970Z,34.73
2019-01-18T03:32:50.377Z,33.17
2019-01-18T03:35:23.108Z,33.63
2019-01-18T03:37:52.563Z,32.83
2019-01-18T03:40:21.433Z,35.77
2019-01-18T03:42:50.818Z,34.30
2019-01-18T03:45:20.753Z,33.30
2019-01-18T03:47:49.515Z,34.50
2019-01-18T03:50:22.941Z,32.23
2019-01-18T03:52:51.482Z,33.40
2019-01-18T03:55:20.196Z,34.70
2019-01-18T03:57:48.954Z,36.27
2019-01-18T04:00:26.824Z,33.43
2019-01-18T04:02:55.680Z,34.57
2019-01-18T04:05:24.236Z,34.43
2019-01-18T04:07:52.691Z,35.53
2019-01-18T04:10:22.222Z,35.47
2019-01-18T04:12:50.688Z,32.50
2019-01-18T04:15:24.009Z,36.03
2019-01-18T04:17:52.471Z,32.77
2019-01-18T04:20:22.418Z,35.43
2019-01-18T04:22:51.328Z,36.90
2019-01-18T04:25:24.404Z,37.30
2019-01-18T04:27:52.797Z,35.13
2019-01-18T04:30:23.144Z,34.30
2019-01-18T04:32:51.604Z,36.27
2019-01-18T04:35:20.420Z,34.27
2019-01-18T04:37:48.905Z,33.67
2019-01-18T04:40:25.259Z,34.50
2019-01-18T04:42:53.995Z,33.30
2019-01-18T04:45:23.394Z,34.43
2019-01-18T04:47:52.390Z,35.63
2019-01-18T04:50:23.457Z,32.97
2019-01-18T04:52:51.913Z,38.40
2019-01-18T04:55:20.390Z,33.60
2019-01-18T04:57:48.850Z,39.50
2019-01-18T05:00:20.238Z,40.33
2019-01-18T05:02:48.920Z,39.77
2019-01-18T05:05:17.477Z,33.70
2019-01-18T05:07:46.184Z,36.13
2019-01-18T05:10:17.542Z,37.87
2019-01-18T05:12:46.186Z,37.93
2019-01-18T05:15:17.690Z,42.50
2019-01-18T05:17:46.091Z,36.13
2019-01-18T05:20:14.714Z,34.77
2019-01-18T05:22:43.122Z,35.73
2019-01-18T05:25:15.023Z,38.37
2019-01-18T05:27:43.885Z,37.33
2019-01-18T05:30:15.620Z,40.63
2019-01-18T05:32:44.412Z,32.77
2019-01-18T05:35:13.115Z,39.00
2019-01-18T05:37:41.758Z,35.77
2019-01-18T05:40:19.069Z,36.47
2019-01-18T05:42:48.374Z,34.80
2019-01-18T05:45:19.144Z,41.27
2019-01-18T05:47:47.597Z,35.63
2019-01-18T05:50:18.627Z,36.97
2019-01-18T05:52:47.129Z,37.33
2019-01-18T05:55:15.686Z,40.87
2019-01-18T05:57:44.494Z,38.37
2019-01-18T06:00:23.085Z,34.87
2019-01-18T06:02:51.480Z,38.73
2019-01-18T06:05:20.812Z,33.23
2019-01-18T06:07:49.198Z,35.00
2019-01-18T06:10:17.846Z,38.97
2019-01-18T06:12:46.244Z,45.03
2019-01-18T06:15:15.217Z,39.90
2019-01-18T06:17:43.906Z,40.17
2019-01-18T06:20:14.970Z,36.50
2019-01-18T06:22:43.636Z,38.57
2019-01-18T06:25:12.055Z,42.43
2019-01-18T06:27:40.807Z,39.60
2019-01-18T06:30:19.813Z,39.30
2019-01-18T06:32:48.518Z,38.17
2019-01-18T06:35:17.405Z,40.10
2019-01-18T06:37:45.794Z,35.70
2019-01-18T06:40:20.414Z,35.90
2019-01-18T06:42:48.794Z,33.73
2019-01-18T06:45:19.675Z,34.00
2019-01-18T06:47:48.464Z,33.13
2019-01-18T06:50:18.735Z,40.23
2019-01-18T06:52:47.432Z,35.23
2019-01-18T06:55:15.839Z,32.10
2019-01-18T06:57:44.305Z,36.00
2019-01-18T07:00:27.139Z,35.23
2019-01-18T07:02:55.963Z,43.63
2019-01-18T07:05:24.685Z,39.47
2019-01-18T07:07:53.159Z,42.13
2019-01-18T07:10:23.587Z,38.53
2019-01-18T07:12:51.990Z,37.17
2019-01-18T07:15:21.065Z,37.20
2019-01-18T07:17:49.988Z,35.90
2019-01-18T07:20:20.684Z,40.40
2019-01-18T07:22:49.258Z,40.83
2019-01-18T07:25:25.601Z,41.70
2019-01-18T07:27:54.324Z,44.77
2019-01-18T07:30:34.217Z,48.23
2019-01-18T07:33:02.646Z,40.10
2019-01-18T07:35:31.107Z,36.50
2019-01-18T07:37:59.580Z,39.60
2019-01-18T07:40:27.971Z,34.37
2019-01-18T07:42:56.382Z,38.27
2019-01-18T07:45:27.928Z,47.58
2019-01-18T07:47:56.444Z,39.37
2019-01-18T07:50:24.913Z,41.20
2019-01-18T07:52:53.705Z,43.60
2019-01-18T07:55:22.120Z,37.13
2019-01-18T07:57:50.574Z,42.67
2019-01-18T08:00:24.573Z,44.73
2019-01-18T08:02:53.341Z,48.90
2019-01-18T08:05:23.558Z,75.00
2019-01-18T08:07:52.026Z,81.23
2019-01-18T08:10:22.278Z,85.57
2019-01-18T08:12:50.672Z,62.83
2019-01-18T08:15:24.586Z,62.20
2019-01-18T08:17:53.239Z,69.37
2019-01-18T08:20:24.084Z,110.12
2019-01-18T08:22:53.331Z,77.80
2019-01-18T08:25:21.730Z,81.17
2019-01-18T08:27:50.441Z,77.70
2019-01-18T08:30:21.201Z,65.90
2019-01-18T08:32:49.839Z,74.23
2019-01-18T08:35:19.758Z,77.87
2019-01-18T08:37:48.971Z,80.80
2019-01-18T08:40:32.119Z,114.13
2019-01-18T08:43:00.519Z,66.20
2019-01-18T08:45:37.876Z,65.07
2019-01-18T08:48:07.613Z,59.43
2019-01-18T08:50:36.317Z,62.67
2019-01-18T08:53:04.852Z,65.43
2019-01-18T08:55:33.234Z,64.80
2019-01-18T08:58:01.627Z,57.40
2019-01-18T09:00:31.934Z,68.23
2019-01-18T09:03:00.825Z,52.10
2019-01-18T09:05:30.125Z,56.37
2019-01-18T09:07:58.846Z,57.53
2019-01-18T09:10:35.406Z,65.53
2019-01-18T09:13:03.788Z,51.57
2019-01-18T09:15:32.257Z,57.57
2019-01-18T09:18:00.819Z,65.13
2019-01-18T09:20:31.406Z,56.10
2019-01-18T09:22:59.872Z,51.57
2019-01-18T09:25:28.528Z,46.00
2019-01-18T09:27:57.214Z,55.20
2019-01-18T09:30:30.445Z,59.23
2019-01-18T09:33:00.411Z,52.40
2019-01-18T09:35:29.307Z,49.17
2019-01-18T09:38:00.036Z,53.70
2019-01-18T09:40:35.538Z,59.53
2019-01-18T09:43:06.672Z,54.00
2019-01-18T09:45:35.118Z,51.30
2019-01-18T09:48:05.743Z,56.20
2019-01-18T09:50:34.406Z,50.50
2019-01-18T09:53:05.584Z,56.67
2019-01-18T09:55:34.125Z,49.07
2019-01-18T09:58:02.600Z,50.43
2019-01-18T10:00:33.803Z,46.00
2019-01-18T10:03:02.386Z,48.30
2019-01-18T10:05:31.065Z,45.00
2019-01-18T10:07:59.848Z,45.30
2019-01-18T10:10:28.792Z,53.57
2019-01-18T10:12:57.310Z,59.30
2019-01-18T10:15:34.425Z,56.47
2019-01-18T10:18:02.814Z,54.73
2019-01-18T10:20:31.388Z,53.43
2019-01-18T10:22:59.855Z,53.50
2019-01-18T10:25:28.269Z,56.73
2019-01-18T10:27:56.725Z,62.63
2019-01-18T10:30:26.861Z,63.53
2019-01-18T10:32:55.720Z,55.80
2019-01-18T10:35:25.731Z,60.00
2019-01-18T10:37:54.194Z,66.97
2019-01-18T10:40:22.902Z,56.00
2019-01-18T10:42:51.985Z,65.23
2019-01-18T10:45:21.373Z,60.10
2019-01-18T10:47:50.906Z,52.07
2019-01-18T10:50:22.354Z,65.03
2019-01-18T10:52:50.736Z,62.37
2019-01-18T10:55:19.201Z,62.30
2019-01-18T10:57:47.582Z,58.47
2019-01-18T11:00:20.584Z,64.80
2019-01-18T11:02:49.850Z,67.70
2019-01-18T11:05:18.974Z,70.07
2019-01-18T11:07:47.611Z,63.57
2019-01-18T11:10:16.831Z,60.67
2019-01-18T11:12:45.213Z,64.57
2019-01-18T11:15:19.441Z,59.67
2019-01-18T11:17:48.135Z,59.13
2019-01-18T11:20:25.535Z,61.57
2019-01-18T11:22:55.955Z,54.50
2019-01-18T11:25:24.350Z,51.77
2019-01-18T11:27:52.749Z,57.63
2019-01-18T11:30:21.223Z,52.80
2019-01-18T11:32:49.691Z,51.30
2019-01-18T11:35:18.382Z,45.00
2019-01-18T11:37:47.083Z,50.40
2019-01-18T11:40:20.361Z,48.63
2019-01-18T11:42:49.327Z,49.80
2019-01-18T11:45:17.940Z,53.63
2019-01-18T11:47:46.483Z,49.27
2019-01-18T11:50:20.875Z,50.90
2019-01-18T11:52:49.309Z,44.30
2019-01-18T11:55:18.100Z,44.83
2019-01-18T11:57:46.579Z,48.70
2019-01-18T12:00:23.320Z,48.57
2019-01-18T12:02:52.114Z,45.67
2019-01-18T12:05:20.880Z,43.63
2019-01-18T12:07:49.344Z,41.60
2019-01-18T12:10:20.960Z,44.83
2019-01-18T12:12:49.653Z,46.90
2019-01-18T12:15:18.050Z,41.00
2019-01-18T12:17:46.440Z,43.10
2019-01-18T12:20:26.853Z,46.57
2019-01-18T12:22:55.259Z,48.17
2019-01-18T12:25:23.708Z,47.13
2019-01-18T12:27:52.114Z,47.90
2019-01-18T12:30:23.875Z,41.97
2019-01-18T12:32:52.267Z,51.37
2019-01-18T12:35:20.668Z,39.50
2019-01-18T12:37:50.122Z,44.13
2019-01-18T12:40:18.612Z,46.33
2019-01-18T12:42:47.491Z,38.10
2019-01-18T12:45:18.592Z,41.07
2019-01-18T12:47:47.907Z,40.80
2019-01-18T12:50:19.910Z,39.97
2019-01-18T12:52:48.369Z,40.37
2019-01-18T12:55:16.927Z,43.13
2019-01-18T12:57:45.374Z,36.97
2019-01-18T13:00:16.959Z,39.97
2019-01-18T13:02:45.408Z,36.27
2019-01-18T13:05:17.232Z,41.23
2019-01-18T13:07:46.797Z,39.90
2019-01-18T13:10:15.192Z,36.47
2019-01-18T13:12:43.657Z,36.40
2019-01-18T13:15:18.444Z,37.93
2019-01-18T13:17:47.238Z,34.10
2019-01-18T13:20:15.711Z,36.53
2019-01-18T13:22:44.490Z,31.90
2019-01-18T13:25:15.174Z,37.03
2019-01-18T13:27:44.235Z,38.10
2019-01-18T13:30:18.348Z,37.03
2019-01-18T13:32:47.096Z,34.13
2019-01-18T13:35:15.552Z,34.27
2019-01-18T13:37:44.024Z,32.47
2019-01-18T13:40:15.413Z,34.70
2019-01-18T13:42:43.871Z,36.63
2019-01-18T13:45:13.638Z,34.80
2019-01-18T13:47:43.655Z,34.40
2019-01-18T13:50:16.922Z,33.67
2019-01-18T13:52:45.489Z,33.00
2019-01-18T13:55:19.734Z,31.43
2019-01-18T13:57:48.433Z,32.20
2019-01-18T14:00:17.349Z,30.40
2019-01-18T14:02:48.586Z,31.13
2019-01-18T14:05:16.068Z,33.43
2019-01-18T14:07:44.827Z,34.37
2019-01-18T14:10:25.385Z,34.37
2019-01-18T14:12:54.175Z,37.07
2019-01-18T14:15:24.616Z,38.20
2019-01-18T14:17:53.097Z,34.97
2019-01-18T14:20:27.263Z,34.83
2019-01-18T14:22:56.599Z,33.90
2019-01-18T14:25:25.069Z,37.77
2019-01-18T14:27:54.189Z,30.90
2019-01-18T14:30:27.601Z,34.20
2019-01-18T14:32:56.775Z,35.07
2019-01-18T14:35:25.407Z,33.47
2019-01-18T14:37:54.034Z,35.60
2019-01-18T14:40:23.136Z,36.90
2019-01-18T14:42:55.504Z,34.63
2019-01-18T14:45:33.274Z,38.80
2019-01-18T14:48:02.002Z,33.97
2019-01-18T14:50:30.468Z,32.70
2019-01-18T14:52:58.855Z,37.77
2019-01-18T14:55:27.316Z,30.90
2019-01-18T14:57:56.165Z,34.20
2019-01-18T15:00:28.870Z,32.67
2019-01-18T15:03:02.286Z,33.30
2019-01-18T15:05:27.711Z,31.77
2019-01-18T15:07:56.506Z,33.40
2019-01-18T15:10:25.839Z,30.70
2019-01-18T15:13:05.955Z,33.93
2019-01-18T15:15:34.505Z,34.63
2019-01-18T15:18:03.002Z,32.60
2019-01-18T15:20:32.724Z,36.00
2019-01-18T15:23:01.644Z,36.43
2019-01-18T15:25:30.239Z,34.63
2019-01-18T15:27:58.848Z,32.13
2019-01-18T15:30:29.574Z,35.97
2019-01-18T15:32:58.144Z,34.70
2019-01-18T15:35:34.563Z,33.07
2019-01-18T15:38:08.568Z,32.57
2019-01-18T15:40:40.862Z,34.50
2019-01-18T15:43:10.403Z,32.30
2019-01-18T15:45:38.914Z,37.50
2019-01-18T15:48:07.742Z,33.97
2019-01-18T15:50:38.971Z,37.73
2019-01-18T15:53:07.750Z,35.47
2019-01-18T15:55:36.883Z,34.17
2019-01-18T15:58:06.610Z,34.20
2019-01-18T16:00:40.379Z,33.47
2019-01-18T16:03:15.628Z,31.33
2019-01-18T16:05:39.560Z,33.87
2019-01-18T16:08:08.441Z,35.20
2019-01-18T16:10:36.850Z,31.37
2019-01-18T16:13:05.886Z,32.00
2019-01-18T16:15:37.329Z,36.37
2019-01-18T16:18:08.813Z,31.00
2019-01-18T16:20:37.203Z,33.90
2019-01-18T16:23:06.069Z,31.30
2019-01-18T16:25:34.583Z,33.33
2019-01-18T16:28:03.054Z,34.83
2019-01-18T16:30:33.641Z,31.23
2019-01-18T16:33:02.208Z,33.17
2019-01-18T16:35:30.669Z,31.13
2019-01-18T16:37:59.178Z,33.97
2019-01-18T16:40:33.307Z,30.77
2019-01-18T16:43:08.270Z,31.00
2019-01-18T16:45:36.703Z,29.77
2019-01-18T16:48:05.495Z,28.33
2019-01-18T16:50:34.177Z,31.47
2019-01-18T16:53:02.578Z,28.47
2019-01-18T16:55:31.392Z,30.23
2019-01-18T16:58:00.249Z,28.70
2019-01-18T17:00:31.271Z,29.40
2019-01-18T17:02:59.684Z,30.07
2019-01-18T17:05:28.509Z,28.27
2019-01-18T17:07:57.210Z,28.07
2019-01-18T17:10:25.736Z,31.87
2019-01-18T17:12:54.248Z,35.23
2019-01-18T17:15:22.801Z,36.40
2019-01-18T17:17:51.194Z,33.07
2019-01-18T17:20:31.688Z,34.93
2019-01-18T17:23:00.074Z,29.30
2019-01-18T17:25:28.635Z,32.47
2019-01-18T17:27:57.117Z,31.33
2019-01-18T17:30:25.579Z,31.77
2019-01-18T17:32:54.785Z,33.00
2019-01-18T17:35:47.744Z,30.53
2019-01-18T17:38:22.302Z,33.00
2019-01-18T17:40:53.755Z,27.27
2019-01-18T17:43:27.805Z,32.03
2019-01-18T17:46:08.459Z,26.73
2019-01-18T17:49:03.832Z,28.40
2019-01-18T17:51:35.285Z,29.97
2019-01-18T17:54:18.254Z,29.27
2019-01-18T17:56:58.803Z,30.60
2019-01-18T18:00:03.682Z,28.37
2019-01-18T18:02:47.208Z,28.67
2019-01-18T18:05:27.267Z,28.77
2019-01-18T18:08:19.283Z,29.57
2019-01-18T18:11:07.382Z,29.80
2019-01-18T18:13:43.039Z,25.80
2019-01-18T18:16:51.164Z,25.72
2019-01-18T18:19:50.005Z,24.80
2019-01-18T18:22:27.052Z,36.53
2019-01-18T18:25:19.633Z,29.30
2019-01-18T18:28:13.453Z,26.70
2019-01-18T18:30:47.588Z,28.12
2019-01-18T18:33:50.451Z,27.50
2019-01-18T18:36:22.581Z,26.70
2019-01-18T18:39:20.771Z,29.57
2019-01-18T18:41:57.879Z,28.97
2019-01-18T18:44:59.376Z,28.32
2019-01-18T18:47:31.060Z,25.10
2019-01-18T18:50:29.856Z,26.00
2019-01-18T18:53:04.042Z,27.42
2019-01-18T18:55:47.715Z,30.53
2019-01-18T18:58:19.262Z,25.12
2019-01-18T19:01:02.869Z,27.60
2019-01-18T19:03:57.533Z,27.77
2019-01-18T19:06:53.707Z,26.80
2019-01-18T19:09:33.999Z,30.63
2019-01-18T19:12:14.170Z,28.73
2019-01-18T19:14:54.590Z,30.80
2019-01-18T19:17:37.897Z,27.80
2019-01-18T19:20:21.193Z,24.92
2019-01-18T19:23:01.459Z,30.62
2019-01-18T19:25:41.716Z,28.23
2019-01-18T19:28:22.510Z,27.00
2019-01-18T19:31:22.431Z,27.73
2019-01-18T19:34:04.448Z,29.10
2019-01-18T19:36:54.310Z,25.92
2019-01-18T19:39:47.182Z,32.58
2019-01-18T19:42:33.544Z,30.88
2019-01-18T19:45:14.105Z,26.62
2019-01-18T19:47:45.544Z,29.75
2019-01-18T19:50:25.960Z,29.60
2019-01-18T19:53:14.095Z,32.53
2019-01-18T19:55:48.058Z,29.70
2019-01-18T19:58:37.428Z,27.77
2019-01-18T20:01:11.703Z,29.50
2019-01-18T20:03:57.743Z,27.80
2019-01-18T20:06:31.981Z,30.68
2019-01-18T20:09:05.368Z,28.80
2019-01-18T20:11:39.526Z,28.00
2019-01-18T20:14:11.227Z,31.50
2019-01-18T20:16:54.450Z,29.60
2019-01-18T20:19:28.692Z,29.20
2019-01-18T20:22:12.003Z,24.67
2019-01-18T20:25:14.869Z,34.50
2019-01-18T20:27:49.413Z,29.32
2019-01-18T20:30:43.908Z,26.90
2019-01-18T20:33:22.509Z,32.05
2019-01-18T20:36:06.365Z,29.82
2019-01-18T20:38:57.261Z,27.32
2019-01-18T20:41:46.909Z,30.08
2019-01-18T20:44:34.989Z,27.93
2019-01-18T20:47:18.088Z,29.40
2019-01-18T20:49:49.767Z,27.07
2019-01-18T20:52:39.059Z,29.80
2019-01-18T20:55:28.833Z,29.57
2019-01-18T20:58:15.482Z,32.33
2019-01-18T21:01:08.498Z,31.48
2019-01-18T21:03:56.280Z,32.78
2019-01-18T21:06:27.741Z,30.10
2019-01-18T21:09:15.735Z,29.52
2019-01-18T21:11:47.431Z,29.00
2019-01-18T21:14:33.909Z,30.90
2019-01-18T21:17:26.504Z,28.83
2019-01-18T21:20:15.563Z,32.65
2019-01-18T21:23:01.952Z,28.27
2019-01-18T21:25:48.690Z,29.77
2019-01-18T21:28:35.712Z,29.90
2019-01-18T21:31:19.113Z,27.60
2019-01-18T21:34:07.091Z,29.00
2019-01-18T21:36:59.013Z,25.83
2019-01-18T21:39:36.222Z,33.85
2019-01-18T21:42:13.904Z,28.12
2019-01-18T21:44:51.485Z,25.88
2019-01-18T21:47:38.072Z,31.27
2019-01-18T21:50:26.330Z,26.97
2019-01-18T21:53:06.894Z,30.67
2019-01-18T21:55:44.324Z,26.05
2019-01-18T21:58:24.611Z,28.50
2019-01-18T22:01:08.102Z,29.67
2019-01-18T22:03:42.606Z,25.13
2019-01-18T22:06:32.287Z,27.50
2019-01-18T22:09:09.388Z,28.73
2019-01-18T22:11:46.523Z,28.30
2019-01-18T22:14:24.566Z,24.87
2019-01-18T22:16:58.919Z,27.13
2019-01-18T22:19:36.582Z,27.85
2019-01-18T22:22:36.760Z,23.75
2019-01-18T22:25:32.577Z,27.07
2019-01-18T22:28:18.298Z,23.15
2019-01-18T22:31:14.104Z,23.52
2019-01-18T22:33:51.320Z,24.12
2019-01-18T22:36:28.956Z,27.73
2019-01-18T22:39:21.758Z,24.18
2019-01-18T22:41:56.064Z,25.05
2019-01-18T22:44:48.726Z,27.83
2019-01-18T22:47:29.287Z,28.23
2019-01-18T22:50:01.051Z,23.65
2019-01-18T22:52:35.573Z,24.10
2019-01-18T22:55:25.054Z,24.80
2019-01-18T22:58:13.117Z,23.12
2019-01-18T23:01:15.760Z,23.18
2019-01-18T23:03:57.061Z,25.15
2019-01-18T23:06:57.875Z,24.40
2019-01-18T23:09:47.701Z,23.10
2019-01-18T23:12:45.933Z,23.80
2019-01-18T23:15:29.095Z,24.15
2019-01-18T23:18:16.326Z,23.70
2019-01-18T23:21:13.265Z,23.47
2019-01-18T23:23:54.159Z,23.52
2019-01-18T23:26:48.161Z,26.10
2019-01-18T23:29:31.532Z,23.25
2019-01-18T23:32:12.091Z,23.65
2019-01-18T23:34:52.487Z,23.18
2019-01-18T23:37:38.937Z,24.70
2019-01-18T23:40:46.941Z,25.00
2019-01-18T23:43:39.632Z,24.40
2019-01-18T23:46:42.105Z,22.77
2019-01-18T23:49:17.039Z,23.18
2019-01-18T23:51:48.742Z,25.23
2019-01-18T23:54:20.210Z,24.92
2019-01-18T23:57:06.679Z,23.42
2019-01-18T23:59:38.135Z,23.60
